sensor_id;sensor_type;location;lat;lon;timestamp;P1;durP1;ratioP1;P2;durP2;ratioP2
7485;SDS011;3784;54.098;9.998;2023-03-14T00:00:15;19.33;;;5.10;;
7485;SDS011;3784;54.098;9.998;2023-03-14T00:02:42;18.97;;;4.93;;
7485;SDS011;3784;54.098;9.998;2023-03-14T00:05:09;18.50;;;5.17;;
7485;SDS011;3784;54.098;9.998;2023-03-14T00:07:37;17.50;;;5.00;;
7485;SDS011;3784;54.098;9.998;2023-03-14T00:10:04;19.73;;;5.43;;
7485;SDS011;3784;54.098;9.998;2023-03-14T00:12:32;19.53;;;5.40;;
7485;SDS011;3784;54.098;9.998;2023-03-14T00:14:59;16.43;;;4.63;;
7485;SDS011;3784;54.098;9.998;2023-03-14T00:17:29;20.80;;;5.50;;
7485;SDS011;3784;54.098;9.998;2023-03-14T00:19:56;23.40;;;5.80;;
7485;SDS011;3784;54.098;9.998;2023-03-14T00:22:23;20.97;;;5.30;;
7485;SDS011;3784;54.098;9.998;2023-03-14T00:24:50;18.93;;;4.80;;
7485;SDS011;3784;54.098;9.998;2023-03-14T00:27:16;15.83;;;4.50;;
7485;SDS011;3784;54.098;9.998;2023-03-14T00:29:43;16.40;;;4.97;;
7485;SDS011;3784;54.098;9.998;2023-03-14T00:32:10;15.30;;;4.63;;
7485;SDS011;3784;54.098;9.998;2023-03-14T00:34:36;16.50;;;5.00;;
7485;SDS011;3784;54.098;9.998;2023-03-14T00:37:03;18.77;;;5.20;;
7485;SDS011;3784;54.098;9.998;2023-03-14T00:39:29;16.90;;;4.77;;
7485;SDS011;3784;54.098;9.998;2023-03-14T00:41:56;15.30;;;4.97;;
7485;SDS011;3784;54.098;9.998;2023-03-14T00:44:22;19.00;;;4.60;;
7485;SDS011;3784;54.098;9.998;2023-03-14T00:46:49;17.17;;;4.70;;
7485;SDS011;3784;54.098;9.998;2023-03-14T00:49:15;17.63;;;5.20;;
7485;SDS011;3784;54.098;9.998;2023-03-14T00:51:42;16.70;;;4.97;;
7485;SDS011;3784;54.098;9.998;2023-03-14T00:54:08;19.93;;;5.70;;
7485;SDS011;3784;54.098;9.998;2023-03-14T00:56:35;17.53;;;4.43;;
7485;SDS011;3784;54.098;9.998;2023-03-14T00:59:01;16.27;;;4.53;;
7485;SDS011;3784;54.098;9.998;2023-03-14T01:01:28;22.23;;;5.40;;
7485;SDS011;3784;54.098;9.998;2023-03-14T01:03:55;16.33;;;4.57;;
7485;SDS011;3784;54.098;9.998;2023-03-14T01:06:23;16.87;;;5.13;;
7485;SDS011;3784;54.098;9.998;2023-03-14T01:08:51;19.37;;;5.50;;
7485;SDS011;3784;54.098;9.998;2023-03-14T01:11:19;15.53;;;5.43;;
7485;SDS011;3784;54.098;9.998;2023-03-14T01:13:48;21.43;;;5.33;;
7485;SDS011;3784;54.098;9.998;2023-03-14T01:16:14;14.93;;;4.60;;
7485;SDS011;3784;54.098;9.998;2023-03-14T01:18:42;13.63;;;4.50;;
7485;SDS011;3784;54.098;9.998;2023-03-14T01:21:11;14.83;;;4.47;;
7485;SDS011;3784;54.098;9.998;2023-03-14T01:23:41;18.10;;;5.43;;
7485;SDS011;3784;54.098;9.998;2023-03-14T01:26:09;16.23;;;4.57;;
7485;SDS011;3784;54.098;9.998;2023-03-14T01:28:37;24.93;;;5.67;;
7485;SDS011;3784;54.098;9.998;2023-03-14T01:31:05;15.47;;;4.83;;
7485;SDS011;3784;54.098;9.998;2023-03-14T01:33:33;16.80;;;5.30;;
7485;SDS011;3784;54.098;9.998;2023-03-14T01:36:00;15.67;;;4.40;;
7485;SDS011;3784;54.098;9.998;2023-03-14T01:38:29;16.70;;;4.43;;
7485;SDS011;3784;54.098;9.998;2023-03-14T01:40:56;17.80;;;4.67;;
7485;SDS011;3784;54.098;9.998;2023-03-14T01:43:23;19.03;;;5.33;;
7485;SDS011;3784;54.098;9.998;2023-03-14T01:48:33;12.67;;;4.20;;
7485;SDS011;3784;54.098;9.998;2023-03-14T01:51:01;16.20;;;4.53;;
7485;SDS011;3784;54.098;9.998;2023-03-14T01:53:28;17.10;;;4.10;;
7485;SDS011;3784;54.098;9.998;2023-03-14T01:55:55;17.33;;;4.80;;
7485;SDS011;3784;54.098;9.998;2023-03-14T01:58:24;19.83;;;5.53;;
7485;SDS011;3784;54.098;9.998;2023-03-14T02:00:53;18.27;;;5.20;;
7485;SDS011;3784;54.098;9.998;2023-03-14T02:03:21;12.83;;;4.10;;
7485;SDS011;3784;54.098;9.998;2023-03-14T02:05:50;18.23;;;5.23;;
7485;SDS011;3784;54.098;9.998;2023-03-14T02:08:17;18.03;;;5.10;;
7485;SDS011;3784;54.098;9.998;2023-03-14T02:10:47;14.60;;;4.70;;
7485;SDS011;3784;54.098;9.998;2023-03-14T02:13:16;17.67;;;5.17;;
7485;SDS011;3784;54.098;9.998;2023-03-14T02:15:44;13.93;;;4.40;;
7485;SDS011;3784;54.098;9.998;2023-03-14T02:18:10;14.50;;;4.67;;
7485;SDS011;3784;54.098;9.998;2023-03-14T02:26:12;16.30;;;4.03;;
7485;SDS011;3784;54.098;9.998;2023-03-14T02:28:47;12.93;;;4.33;;
7485;SDS011;3784;54.098;9.998;2023-03-14T02:31:14;13.80;;;4.80;;
7485;SDS011;3784;54.098;9.998;2023-03-14T02:33:41;15.27;;;4.50;;
7485;SDS011;3784;54.098;9.998;2023-03-14T02:36:09;16.53;;;4.70;;
7485;SDS011;3784;54.098;9.998;2023-03-14T02:38:50;13.43;;;4.13;;
7485;SDS011;3784;54.098;9.998;2023-03-14T02:41:20;13.00;;;4.33;;
7485;SDS011;3784;54.098;9.998;2023-03-14T02:43:47;14.23;;;4.53;;
7485;SDS011;3784;54.098;9.998;2023-03-14T02:46:14;15.10;;;4.40;;
7485;SDS011;3784;54.098;9.998;2023-03-14T02:48:45;17.23;;;4.90;;
7485;SDS011;3784;54.098;9.998;2023-03-14T02:51:17;12.57;;;4.27;;
7485;SDS011;3784;54.098;9.998;2023-03-14T02:53:43;14.53;;;4.70;;
7485;SDS011;3784;54.098;9.998;2023-03-14T02:56:10;12.57;;;4.27;;
7485;SDS011;3784;54.098;9.998;2023-03-14T02:58:37;14.97;;;4.17;;
7485;SDS011;3784;54.098;9.998;2023-03-14T03:01:04;12.67;;;4.30;;
7485;SDS011;3784;54.098;9.998;2023-03-14T03:03:31;11.90;;;3.80;;
7485;SDS011;3784;54.098;9.998;2023-03-14T03:05:58;13.77;;;4.60;;
7485;SDS011;3784;54.098;9.998;2023-03-14T03:08:25;13.70;;;4.57;;
7485;SDS011;3784;54.098;9.998;2023-03-14T03:10:53;14.03;;;4.17;;
7485;SDS011;3784;54.098;9.998;2023-03-14T03:13:20;15.70;;;4.40;;
7485;SDS011;3784;54.098;9.998;2023-03-14T03:15:47;15.20;;;4.73;;
7485;SDS011;3784;54.098;9.998;2023-03-14T03:18:13;10.77;;;4.60;;
7485;SDS011;3784;54.098;9.998;2023-03-14T03:20:40;15.57;;;5.20;;
7485;SDS011;3784;54.098;9.998;2023-03-14T03:23:06;16.53;;;6.40;;
7485;SDS011;3784;54.098;9.998;2023-03-14T03:25:33;15.00;;;5.40;;
7485;SDS011;3784;54.098;9.998;2023-03-14T03:27:59;15.20;;;5.13;;
7485;SDS011;3784;54.098;9.998;2023-03-14T03:30:27;13.53;;;6.27;;
7485;SDS011;3784;54.098;9.998;2023-03-14T03:32:54;12.43;;;5.10;;
7485;SDS011;3784;54.098;9.998;2023-03-14T03:35:20;11.40;;;4.80;;
7485;SDS011;3784;54.098;9.998;2023-03-14T03:37:46;13.83;;;5.43;;
7485;SDS011;3784;54.098;9.998;2023-03-14T03:40:13;13.53;;;6.00;;
7485;SDS011;3784;54.098;9.998;2023-03-14T03:42:40;11.10;;;5.33;;
7485;SDS011;3784;54.098;9.998;2023-03-14T03:45:06;11.57;;;6.10;;
7485;SDS011;3784;54.098;9.998;2023-03-14T03:47:33;12.43;;;6.23;;
7485;SDS011;3784;54.098;9.998;2023-03-14T03:50:00;16.53;;;7.30;;
7485;SDS011;3784;54.098;9.998;2023-03-14T03:52:26;12.57;;;5.93;;
7485;SDS011;3784;54.098;9.998;2023-03-14T03:54:52;9.70;;;6.70;;
7485;SDS011;3784;54.098;9.998;2023-03-14T03:57:19;13.47;;;7.20;;
7485;SDS011;3784;54.098;9.998;2023-03-14T03:59:46;12.80;;;7.47;;
7485;SDS011;3784;54.098;9.998;2023-03-14T04:02:12;16.43;;;8.40;;
7485;SDS011;3784;54.098;9.998;2023-03-14T04:04:39;8.63;;;6.60;;
7485;SDS011;3784;54.098;9.998;2023-03-14T04:07:06;9.00;;;7.13;;
7485;SDS011;3784;54.098;9.998;2023-03-14T04:09:32;10.90;;;5.77;;
7485;SDS011;3784;54.098;9.998;2023-03-14T04:11:59;10.00;;;6.20;;
7485;SDS011;3784;54.098;9.998;2023-03-14T04:14:25;9.70;;;6.67;;
7485;SDS011;3784;54.098;9.998;2023-03-14T04:16:52;12.33;;;7.30;;
7485;SDS011;3784;54.098;9.998;2023-03-14T04:19:18;14.57;;;8.47;;
7485;SDS011;3784;54.098;9.998;2023-03-14T04:21:45;13.70;;;8.60;;
7485;SDS011;3784;54.098;9.998;2023-03-14T04:24:13;13.40;;;7.90;;
7485;SDS011;3784;54.098;9.998;2023-03-14T04:26:39;17.40;;;8.33;;
7485;SDS011;3784;54.098;9.998;2023-03-14T04:29:06;12.17;;;6.70;;
7485;SDS011;3784;54.098;9.998;2023-03-14T04:31:32;12.27;;;7.20;;
7485;SDS011;3784;54.098;9.998;2023-03-14T04:33:59;12.40;;;7.20;;
7485;SDS011;3784;54.098;9.998;2023-03-14T04:36:25;7.43;;;5.43;;
7485;SDS011;3784;54.098;9.998;2023-03-14T04:38:52;9.67;;;4.87;;
7485;SDS011;3784;54.098;9.998;2023-03-14T04:41:18;6.73;;;4.90;;
7485;SDS011;3784;54.098;9.998;2023-03-14T04:43:45;12.83;;;5.97;;
7485;SDS011;3784;54.098;9.998;2023-03-14T04:46:11;8.03;;;5.27;;
7485;SDS011;3784;54.098;9.998;2023-03-14T04:48:38;10.53;;;4.87;;
7485;SDS011;3784;54.098;9.998;2023-03-14T04:51:04;8.77;;;4.73;;
7485;SDS011;3784;54.098;9.998;2023-03-14T04:53:31;8.30;;;4.93;;
7485;SDS011;3784;54.098;9.998;2023-03-14T04:55:58;7.90;;;3.73;;
7485;SDS011;3784;54.098;9.998;2023-03-14T04:58:25;5.07;;;3.30;;
7485;SDS011;3784;54.098;9.998;2023-03-14T05:00:51;7.70;;;3.10;;
7485;SDS011;3784;54.098;9.998;2023-03-14T05:03:18;4.77;;;2.50;;
7485;SDS011;3784;54.098;9.998;2023-03-14T05:05:45;5.90;;;2.20;;
7485;SDS011;3784;54.098;9.998;2023-03-14T05:08:12;4.90;;;2.27;;
7485;SDS011;3784;54.098;9.998;2023-03-14T05:10:38;4.87;;;1.93;;
7485;SDS011;3784;54.098;9.998;2023-03-14T05:13:05;5.43;;;1.80;;
7485;SDS011;3784;54.098;9.998;2023-03-14T05:15:32;7.30;;;2.20;;
7485;SDS011;3784;54.098;9.998;2023-03-14T05:17:58;7.27;;;2.50;;
7485;SDS011;3784;54.098;9.998;2023-03-14T05:20:25;4.93;;;1.87;;
7485;SDS011;3784;54.098;9.998;2023-03-14T05:22:51;7.17;;;2.00;;
7485;SDS011;3784;54.098;9.998;2023-03-14T05:25:18;6.30;;;2.20;;
7485;SDS011;3784;54.098;9.998;2023-03-14T05:27:44;8.27;;;2.30;;
7485;SDS011;3784;54.098;9.998;2023-03-14T05:30:11;6.67;;;2.60;;
7485;SDS011;3784;54.098;9.998;2023-03-14T05:32:38;8.10;;;2.43;;
7485;SDS011;3784;54.098;9.998;2023-03-14T05:35:04;6.77;;;2.33;;
7485;SDS011;3784;54.098;9.998;2023-03-14T05:37:31;9.23;;;3.07;;
7485;SDS011;3784;54.098;9.998;2023-03-14T05:39:58;5.80;;;2.57;;
7485;SDS011;3784;54.098;9.998;2023-03-14T05:42:24;5.70;;;2.67;;
7485;SDS011;3784;54.098;9.998;2023-03-14T05:44:50;8.87;;;3.03;;
7485;SDS011;3784;54.098;9.998;2023-03-14T05:47:17;6.67;;;3.30;;
7485;SDS011;3784;54.098;9.998;2023-03-14T05:49:43;9.83;;;3.17;;
7485;SDS011;3784;54.098;9.998;2023-03-14T05:52:10;9.57;;;3.87;;
7485;SDS011;3784;54.098;9.998;2023-03-14T05:54:36;6.67;;;3.17;;
7485;SDS011;3784;54.098;9.998;2023-03-14T05:57:03;12.37;;;4.10;;
7485;SDS011;3784;54.098;9.998;2023-03-14T05:59:29;10.33;;;4.10;;
7485;SDS011;3784;54.098;9.998;2023-03-14T06:01:57;14.57;;;4.50;;
7485;SDS011;3784;54.098;9.998;2023-03-14T06:04:25;12.23;;;5.00;;
7485;SDS011;3784;54.098;9.998;2023-03-14T06:06:51;9.00;;;3.80;;
7485;SDS011;3784;54.098;9.998;2023-03-14T06:09:20;15.23;;;4.07;;
7485;SDS011;3784;54.098;9.998;2023-03-14T06:11:49;9.53;;;3.80;;
7485;SDS011;3784;54.098;9.998;2023-03-14T06:14:16;7.17;;;3.77;;
7485;SDS011;3784;54.098;9.998;2023-03-14T06:16:43;10.13;;;3.97;;
7485;SDS011;3784;54.098;9.998;2023-03-14T06:19:09;12.37;;;4.13;;
7485;SDS011;3784;54.098;9.998;2023-03-14T06:21:36;10.53;;;4.40;;
7485;SDS011;3784;54.098;9.998;2023-03-14T06:24:02;11.23;;;4.37;;
7485;SDS011;3784;54.098;9.998;2023-03-14T06:26:30;9.70;;;4.40;;
7485;SDS011;3784;54.098;9.998;2023-03-14T06:28:56;14.13;;;5.43;;
7485;SDS011;3784;54.098;9.998;2023-03-14T06:31:23;12.83;;;4.10;;
7485;SDS011;3784;54.098;9.998;2023-03-14T06:33:49;14.17;;;4.87;;
7485;SDS011;3784;54.098;9.998;2023-03-14T06:36:16;16.57;;;5.17;;
7485;SDS011;3784;54.098;9.998;2023-03-14T06:38:42;13.63;;;5.00;;
7485;SDS011;3784;54.098;9.998;2023-03-14T06:41:09;8.00;;;4.33;;
7485;SDS011;3784;54.098;9.998;2023-03-14T06:43:36;8.93;;;4.27;;
7485;SDS011;3784;54.098;9.998;2023-03-14T06:46:05;8.37;;;4.07;;
7485;SDS011;3784;54.098;9.998;2023-03-14T06:48:31;6.37;;;4.57;;
7485;SDS011;3784;54.098;9.998;2023-03-14T06:50:58;7.93;;;3.83;;
7485;SDS011;3784;54.098;9.998;2023-03-14T06:53:24;6.80;;;3.77;;
7485;SDS011;3784;54.098;9.998;2023-03-14T06:55:51;8.57;;;4.00;;
7485;SDS011;3784;54.098;9.998;2023-03-14T06:58:17;7.93;;;4.00;;
7485;SDS011;3784;54.098;9.998;2023-03-14T07:00:44;11.67;;;4.07;;
7485;SDS011;3784;54.098;9.998;2023-03-14T07:03:10;8.50;;;3.90;;
7485;SDS011;3784;54.098;9.998;2023-03-14T07:05:39;9.63;;;4.63;;
7485;SDS011;3784;54.098;9.998;2023-03-14T07:08:07;8.80;;;4.13;;
7485;SDS011;3784;54.098;9.998;2023-03-14T07:10:34;6.43;;;3.83;;
7485;SDS011;3784;54.098;9.998;2023-03-14T07:13:01;8.37;;;3.70;;
7485;SDS011;3784;54.098;9.998;2023-03-14T07:15:28;8.57;;;4.03;;
7485;SDS011;3784;54.098;9.998;2023-03-14T07:17:54;10.87;;;4.37;;
7485;SDS011;3784;54.098;9.998;2023-03-14T07:20:21;6.67;;;4.00;;
7485;SDS011;3784;54.098;9.998;2023-03-14T07:22:47;10.00;;;4.00;;
7485;SDS011;3784;54.098;9.998;2023-03-14T07:25:15;7.00;;;4.17;;
7485;SDS011;3784;54.098;9.998;2023-03-14T07:27:43;7.83;;;4.10;;
7485;SDS011;3784;54.098;9.998;2023-03-14T07:30:11;7.87;;;4.00;;
7485;SDS011;3784;54.098;9.998;2023-03-14T07:32:38;6.93;;;3.50;;
7485;SDS011;3784;54.098;9.998;2023-03-14T07:35:05;6.20;;;4.17;;
7485;SDS011;3784;54.098;9.998;2023-03-14T07:37:32;8.73;;;4.50;;
7485;SDS011;3784;54.098;9.998;2023-03-14T07:39:58;9.20;;;4.40;;
7485;SDS011;3784;54.098;9.998;2023-03-14T07:42:25;6.60;;;3.63;;
7485;SDS011;3784;54.098;9.998;2023-03-14T07:44:51;8.80;;;3.50;;
7485;SDS011;3784;54.098;9.998;2023-03-14T07:47:18;8.03;;;3.80;;
7485;SDS011;3784;54.098;9.998;2023-03-14T07:49:45;8.37;;;3.67;;
7485;SDS011;3784;54.098;9.998;2023-03-14T07:52:11;6.63;;;3.20;;
7485;SDS011;3784;54.098;9.998;2023-03-14T07:54:38;5.53;;;3.40;;
7485;SDS011;3784;54.098;9.998;2023-03-14T07:57:04;7.27;;;4.00;;
7485;SDS011;3784;54.098;9.998;2023-03-14T07:59:31;6.50;;;3.30;;
7485;SDS011;3784;54.098;9.998;2023-03-14T08:01:57;7.03;;;3.30;;
7485;SDS011;3784;54.098;9.998;2023-03-14T08:04:24;6.00;;;3.20;;
7485;SDS011;3784;54.098;9.998;2023-03-14T08:06:51;8.83;;;3.60;;
7485;SDS011;3784;54.098;9.998;2023-03-14T08:09:18;6.07;;;3.40;;
7485;SDS011;3784;54.098;9.998;2023-03-14T08:11:45;6.87;;;3.63;;
7485;SDS011;3784;54.098;9.998;2023-03-14T08:14:11;9.70;;;4.00;;
7485;SDS011;3784;54.098;9.998;2023-03-14T08:16:38;11.43;;;4.20;;
7485;SDS011;3784;54.098;9.998;2023-03-14T08:19:04;7.07;;;3.70;;
7485;SDS011;3784;54.098;9.998;2023-03-14T08:21:31;7.70;;;3.83;;
7485;SDS011;3784;54.098;9.998;2023-03-14T08:23:57;9.47;;;4.10;;
7485;SDS011;3784;54.098;9.998;2023-03-14T08:26:24;11.27;;;4.50;;
7485;SDS011;3784;54.098;9.998;2023-03-14T08:28:50;8.70;;;4.10;;
7485;SDS011;3784;54.098;9.998;2023-03-14T08:31:17;8.53;;;3.10;;
7485;SDS011;3784;54.098;9.998;2023-03-14T08:33:44;6.27;;;3.73;;
7485;SDS011;3784;54.098;9.998;2023-03-14T08:36:10;12.37;;;4.00;;
7485;SDS011;3784;54.098;9.998;2023-03-14T08:38:37;11.53;;;4.20;;
7485;SDS011;3784;54.098;9.998;2023-03-14T08:41:03;7.20;;;3.47;;
7485;SDS011;3784;54.098;9.998;2023-03-14T08:43:31;9.40;;;3.53;;
7485;SDS011;3784;54.098;9.998;2023-03-14T08:45:57;6.00;;;3.63;;
7485;SDS011;3784;54.098;9.998;2023-03-14T08:48:25;8.43;;;3.60;;
7485;SDS011;3784;54.098;9.998;2023-03-14T08:50:51;5.57;;;3.77;;
7485;SDS011;3784;54.098;9.998;2023-03-14T08:53:18;11.37;;;3.80;;
7485;SDS011;3784;54.098;9.998;2023-03-14T08:55:44;5.90;;;3.60;;
7485;SDS011;3784;54.098;9.998;2023-03-14T08:58:11;10.10;;;3.83;;
7485;SDS011;3784;54.098;9.998;2023-03-14T09:00:37;6.23;;;3.83;;
7485;SDS011;3784;54.098;9.998;2023-03-14T09:03:04;6.07;;;3.60;;
7485;SDS011;3784;54.098;9.998;2023-03-14T09:05:32;5.03;;;3.73;;
7485;SDS011;3784;54.098;9.998;2023-03-14T09:08:00;6.77;;;4.00;;
7485;SDS011;3784;54.098;9.998;2023-03-14T09:10:26;9.50;;;5.53;;
7485;SDS011;3784;54.098;9.998;2023-03-14T09:12:53;4.87;;;2.60;;
7485;SDS011;3784;54.098;9.998;2023-03-14T09:15:19;2.77;;;1.10;;
7485;SDS011;3784;54.098;9.998;2023-03-14T09:17:45;2.20;;;1.57;;
7485;SDS011;3784;54.098;9.998;2023-03-14T09:20:12;2.20;;;1.20;;
7485;SDS011;3784;54.098;9.998;2023-03-14T09:22:40;1.13;;;1.00;;
7485;SDS011;3784;54.098;9.998;2023-03-14T09:25:06;3.43;;;1.90;;
7485;SDS011;3784;54.098;9.998;2023-03-14T09:27:33;2.70;;;1.63;;
7485;SDS011;3784;54.098;9.998;2023-03-14T09:30:00;3.33;;;1.60;;
7485;SDS011;3784;54.098;9.998;2023-03-14T09:32:26;2.47;;;1.73;;
7485;SDS011;3784;54.098;9.998;2023-03-14T09:34:53;2.77;;;1.60;;
7485;SDS011;3784;54.098;9.998;2023-03-14T09:37:19;3.87;;;1.60;;
7485;SDS011;3784;54.098;9.998;2023-03-14T09:39:47;5.03;;;2.20;;
7485;SDS011;3784;54.098;9.998;2023-03-14T09:42:14;3.80;;;2.70;;
7485;SDS011;3784;54.098;9.998;2023-03-14T09:44:51;3.97;;;2.30;;
7485;SDS011;3784;54.098;9.998;2023-03-14T09:47:21;2.57;;;1.80;;
7485;SDS011;3784;54.098;9.998;2023-03-14T09:49:48;2.57;;;1.90;;
7485;SDS011;3784;54.098;9.998;2023-03-14T09:52:16;2.40;;;1.90;;
7485;SDS011;3784;54.098;9.998;2023-03-14T09:54:47;4.30;;;2.00;;
7485;SDS011;3784;54.098;9.998;2023-03-14T09:57:19;3.40;;;1.97;;
7485;SDS011;3784;54.098;9.998;2023-03-14T09:59:47;3.57;;;1.80;;
7485;SDS011;3784;54.098;9.998;2023-03-14T10:02:19;1.73;;;1.57;;
7485;SDS011;3784;54.098;9.998;2023-03-14T10:04:46;2.30;;;1.30;;
7485;SDS011;3784;54.098;9.998;2023-03-14T10:07:35;3.30;;;1.50;;
7485;SDS011;3784;54.098;9.998;2023-03-14T10:10:00;4.07;;;1.40;;
7485;SDS011;3784;54.098;9.998;2023-03-14T10:12:34;2.20;;;1.10;;
7485;SDS011;3784;54.098;9.998;2023-03-14T10:15:07;3.23;;;1.30;;
7485;SDS011;3784;54.098;9.998;2023-03-14T10:17:43;2.27;;;1.30;;
7485;SDS011;3784;54.098;9.998;2023-03-14T10:22:53;2.67;;;1.10;;
7485;SDS011;3784;54.098;9.998;2023-03-14T10:25:25;3.23;;;1.60;;
7485;SDS011;3784;54.098;9.998;2023-03-14T10:27:54;1.23;;;1.13;;
7485;SDS011;3784;54.098;9.998;2023-03-14T10:33:08;2.90;;;1.90;;
7485;SDS011;3784;54.098;9.998;2023-03-14T10:35:52;3.47;;;1.40;;
7485;SDS011;3784;54.098;9.998;2023-03-14T10:38:25;4.63;;;1.60;;
7485;SDS011;3784;54.098;9.998;2023-03-14T10:40:56;2.30;;;1.70;;
7485;SDS011;3784;54.098;9.998;2023-03-14T10:43:34;4.83;;;1.90;;
7485;SDS011;3784;54.098;9.998;2023-03-14T10:46:06;3.27;;;1.90;;
7485;SDS011;3784;54.098;9.998;2023-03-14T10:48:36;8.67;;;2.10;;
7485;SDS011;3784;54.098;9.998;2023-03-14T10:51:08;3.87;;;2.03;;
7485;SDS011;3784;54.098;9.998;2023-03-14T10:53:41;4.60;;;1.60;;
7485;SDS011;3784;54.098;9.998;2023-03-14T10:56:17;4.30;;;1.70;;
7485;SDS011;3784;54.098;9.998;2023-03-14T10:58:49;7.33;;;1.83;;
7485;SDS011;3784;54.098;9.998;2023-03-14T11:01:26;4.30;;;1.47;;
7485;SDS011;3784;54.098;9.998;2023-03-14T11:04:04;5.07;;;1.80;;
7485;SDS011;3784;54.098;9.998;2023-03-14T11:09:47;6.47;;;1.90;;
7485;SDS011;3784;54.098;9.998;2023-03-14T11:15:45;3.47;;;1.40;;
7485;SDS011;3784;54.098;9.998;2023-03-14T11:20:42;4.03;;;1.87;;
7485;SDS011;3784;54.098;9.998;2023-03-14T11:23:16;5.43;;;2.10;;
7485;SDS011;3784;54.098;9.998;2023-03-14T11:25:56;7.37;;;2.13;;
7485;SDS011;3784;54.098;9.998;2023-03-14T11:28:46;6.07;;;2.17;;
7485;SDS011;3784;54.098;9.998;2023-03-14T11:31:24;6.93;;;1.80;;
7485;SDS011;3784;54.098;9.998;2023-03-14T11:36:44;4.30;;;1.70;;
7485;SDS011;3784;54.098;9.998;2023-03-14T11:39:16;10.37;;;2.10;;
7485;SDS011;3784;54.098;9.998;2023-03-14T11:41:47;6.07;;;1.93;;
7485;SDS011;3784;54.098;9.998;2023-03-14T11:44:32;4.93;;;2.03;;
7485;SDS011;3784;54.098;9.998;2023-03-14T11:47:05;6.07;;;2.37;;
7485;SDS011;3784;54.098;9.998;2023-03-14T11:49:45;7.13;;;2.40;;
7485;SDS011;3784;54.098;9.998;2023-03-14T11:52:31;8.07;;;2.40;;
7485;SDS011;3784;54.098;9.998;2023-03-14T11:55:01;9.33;;;2.67;;
7485;SDS011;3784;54.098;9.998;2023-03-14T11:57:30;8.03;;;2.47;;
7485;SDS011;3784;54.098;9.998;2023-03-14T12:02:25;9.80;;;2.67;;
7485;SDS011;3784;54.098;9.998;2023-03-14T12:10:37;8.57;;;2.70;;
7485;SDS011;3784;54.098;9.998;2023-03-14T12:13:09;5.40;;;1.93;;
7485;SDS011;3784;54.098;9.998;2023-03-14T12:15:41;8.77;;;2.43;;
7485;SDS011;3784;54.098;9.998;2023-03-14T12:18:49;7.40;;;2.97;;
7485;SDS011;3784;54.098;9.998;2023-03-14T12:21:11;9.33;;;2.70;;
7485;SDS011;3784;54.098;9.998;2023-03-14T12:23:48;9.83;;;2.50;;
7485;SDS011;3784;54.098;9.998;2023-03-14T12:26:19;8.53;;;2.70;;
7485;SDS011;3784;54.098;9.998;2023-03-14T12:34:01;12.77;;;3.70;;
7485;SDS011;3784;54.098;9.998;2023-03-14T12:37:04;12.23;;;3.70;;
7485;SDS011;3784;54.098;9.998;2023-03-14T12:48:10;9.53;;;3.00;;
7485;SDS011;3784;54.098;9.998;2023-03-14T12:50:54;13.03;;;3.40;;
7485;SDS011;3784;54.098;9.998;2023-03-14T12:59:05;9.70;;;3.00;;
7485;SDS011;3784;54.098;9.998;2023-03-14T13:01:45;12.00;;;3.00;;
7485;SDS011;3784;54.098;9.998;2023-03-14T13:04:13;11.53;;;3.07;;
7485;SDS011;3784;54.098;9.998;2023-03-14T13:12:11;10.33;;;3.10;;
7485;SDS011;3784;54.098;9.998;2023-03-14T13:14:44;10.83;;;3.27;;
7485;SDS011;3784;54.098;9.998;2023-03-14T13:17:15;11.90;;;3.03;;
7485;SDS011;3784;54.098;9.998;2023-03-14T13:20:22;13.63;;;2.60;;
7485;SDS011;3784;54.098;9.998;2023-03-14T13:22:53;7.70;;;1.97;;
7485;SDS011;3784;54.098;9.998;2023-03-14T13:25:20;8.13;;;2.10;;
7485;SDS011;3784;54.098;9.998;2023-03-14T13:27:49;3.47;;;1.83;;
7485;SDS011;3784;54.098;9.998;2023-03-14T13:30:26;4.10;;;2.00;;
7485;SDS011;3784;54.098;9.998;2023-03-14T13:32:54;6.70;;;2.57;;
7485;SDS011;3784;54.098;9.998;2023-03-14T13:37:59;5.87;;;1.90;;
7485;SDS011;3784;54.098;9.998;2023-03-14T13:40:42;4.43;;;2.10;;
7485;SDS011;3784;54.098;9.998;2023-03-14T13:43:11;6.13;;;2.20;;
7485;SDS011;3784;54.098;9.998;2023-03-14T13:45:44;7.50;;;2.43;;
7485;SDS011;3784;54.098;9.998;2023-03-14T13:48:14;7.90;;;1.93;;
7485;SDS011;3784;54.098;9.998;2023-03-14T13:53:46;7.03;;;1.73;;
7485;SDS011;3784;54.098;9.998;2023-03-14T13:56:30;9.57;;;2.40;;
7485;SDS011;3784;54.098;9.998;2023-03-14T13:58:58;6.47;;;1.90;;
7485;SDS011;3784;54.098;9.998;2023-03-14T14:01:25;9.37;;;2.00;;
7485;SDS011;3784;54.098;9.998;2023-03-14T14:03:54;6.23;;;1.70;;
7485;SDS011;3784;54.098;9.998;2023-03-14T14:06:29;3.37;;;1.57;;
7485;SDS011;3784;54.098;9.998;2023-03-14T14:08:58;7.97;;;2.17;;
7485;SDS011;3784;54.098;9.998;2023-03-14T14:14:33;8.03;;;2.10;;
7485;SDS011;3784;54.098;9.998;2023-03-14T14:17:08;5.70;;;2.40;;
7485;SDS011;3784;54.098;9.998;2023-03-14T14:19:37;5.53;;;2.00;;
7485;SDS011;3784;54.098;9.998;2023-03-14T14:22:04;5.20;;;1.90;;
7485;SDS011;3784;54.098;9.998;2023-03-14T14:24:32;8.13;;;2.40;;
7485;SDS011;3784;54.098;9.998;2023-03-14T14:29:43;6.07;;;2.50;;
7485;SDS011;3784;54.098;9.998;2023-03-14T14:32:12;5.30;;;2.40;;
7485;SDS011;3784;54.098;9.998;2023-03-14T14:34:41;7.90;;;3.00;;
7485;SDS011;3784;54.098;9.998;2023-03-14T14:37:19;5.83;;;2.27;;
7485;SDS011;3784;54.098;9.998;2023-03-14T14:39:48;7.77;;;2.10;;
7485;SDS011;3784;54.098;9.998;2023-03-14T14:42:15;4.00;;;1.87;;
7485;SDS011;3784;54.098;9.998;2023-03-14T14:44:43;4.33;;;2.00;;
7485;SDS011;3784;54.098;9.998;2023-03-14T14:47:14;6.67;;;2.03;;
7485;SDS011;3784;54.098;9.998;2023-03-14T14:49:41;6.47;;;3.20;;
7485;SDS011;3784;54.098;9.998;2023-03-14T14:52:15;5.40;;;2.20;;
7485;SDS011;3784;54.098;9.998;2023-03-14T14:54:45;7.70;;;2.27;;
7485;SDS011;3784;54.098;9.998;2023-03-14T14:57:22;4.60;;;1.53;;
7485;SDS011;3784;54.098;9.998;2023-03-14T14:59:57;6.03;;;2.00;;
7485;SDS011;3784;54.098;9.998;2023-03-14T15:02:33;8.40;;;2.47;;
7485;SDS011;3784;54.098;9.998;2023-03-14T15:05:11;8.90;;;2.43;;
7485;SDS011;3784;54.098;9.998;2023-03-14T15:07:38;6.67;;;1.93;;
7485;SDS011;3784;54.098;9.998;2023-03-14T15:10:05;9.50;;;2.53;;
7485;SDS011;3784;54.098;9.998;2023-03-14T15:12:32;8.97;;;2.77;;
7485;SDS011;3784;54.098;9.998;2023-03-14T15:14:59;8.40;;;2.53;;
7485;SDS011;3784;54.098;9.998;2023-03-14T15:17:25;8.37;;;2.77;;
7485;SDS011;3784;54.098;9.998;2023-03-14T15:19:52;7.70;;;2.27;;
7485;SDS011;3784;54.098;9.998;2023-03-14T15:22:18;8.90;;;2.90;;
7485;SDS011;3784;54.098;9.998;2023-03-14T15:24:46;10.00;;;3.07;;
7485;SDS011;3784;54.098;9.998;2023-03-14T15:27:13;6.37;;;2.50;;
7485;SDS011;3784;54.098;9.998;2023-03-14T15:29:41;9.93;;;2.73;;
7485;SDS011;3784;54.098;9.998;2023-03-14T15:32:12;7.17;;;2.07;;
7485;SDS011;3784;54.098;9.998;2023-03-14T15:34:40;10.00;;;2.53;;
7485;SDS011;3784;54.098;9.998;2023-03-14T15:37:11;9.43;;;2.30;;
7485;SDS011;3784;54.098;9.998;2023-03-14T15:39:39;9.00;;;3.20;;
7485;SDS011;3784;54.098;9.998;2023-03-14T15:42:06;9.50;;;3.00;;
7485;SDS011;3784;54.098;9.998;2023-03-14T15:44:32;8.87;;;2.67;;
7485;SDS011;3784;54.098;9.998;2023-03-14T15:46:59;9.20;;;2.30;;
7485;SDS011;3784;54.098;9.998;2023-03-14T15:49:25;8.83;;;2.67;;
7485;SDS011;3784;54.098;9.998;2023-03-14T15:51:52;10.90;;;2.53;;
7485;SDS011;3784;54.098;9.998;2023-03-14T15:54:19;8.23;;;2.63;;
7485;SDS011;3784;54.098;9.998;2023-03-14T15:56:46;7.30;;;2.23;;
7485;SDS011;3784;54.098;9.998;2023-03-14T15:59:13;8.43;;;2.43;;
7485;SDS011;3784;54.098;9.998;2023-03-14T16:01:39;7.70;;;2.30;;
7485;SDS011;3784;54.098;9.998;2023-03-14T16:04:06;7.53;;;3.03;;
7485;SDS011;3784;54.098;9.998;2023-03-14T16:06:32;6.00;;;2.20;;
7485;SDS011;3784;54.098;9.998;2023-03-14T16:08:59;7.57;;;2.80;;
7485;SDS011;3784;54.098;9.998;2023-03-14T16:11:25;8.00;;;2.30;;
7485;SDS011;3784;54.098;9.998;2023-03-14T16:13:52;8.73;;;2.80;;
7485;SDS011;3784;54.098;9.998;2023-03-14T16:16:18;8.87;;;2.93;;
7485;SDS011;3784;54.098;9.998;2023-03-14T16:18:45;6.83;;;2.50;;
7485;SDS011;3784;54.098;9.998;2023-03-14T16:21:16;13.83;;;3.57;;
7485;SDS011;3784;54.098;9.998;2023-03-14T16:23:44;8.20;;;2.60;;
7485;SDS011;3784;54.098;9.998;2023-03-14T16:26:12;8.53;;;2.90;;
7485;SDS011;3784;54.098;9.998;2023-03-14T16:28:43;16.47;;;3.10;;